Kufra, Libya
Current Conditions -  °F | °C
As of 7:00 AM on Wednesday 28 Jan 2015 (Local Time) from HEBL Reporting Station
Clear Clear  
Wind Chill: 63°   Ceiling: Unl
Heat Index: 63°   Visibility: 6mi
Dew Point: 52°   Wind: 5mph
Humidity: 68%   Direction: 280°W
Pressure: 29.88"   Gusts: NA
Location:  24.18°N, 23.31°E
Report Text: HEBL 280400Z 28004KT CAVOK 17/11 Q1012 NOSIG
Loading
Personal Weather Stations






























Interactive Weather Map New forecast layout! Learn more

10-Day Weather Forecast

Advertisements
Track Severe Weather on mobile